C9AUF FQMA-FQIA

Flight info

Callsign C9AUF
Flight time 0h 16m
Altitude 3500
Route DCT
Aircraft C182/L-SDGRY/S

Departure

Time 2026-04-12 09:52
Airport Maputo Airport (FQMA)

Arrival

Time 2026-04-12 10:08
Airport Inhaca Airport (FQIA)
Time Latitude Longitude Altitude Speed Heading
2026-04-12 09:22 -25.92573 32.56357 122 ft 0 kts 251°
2026-04-12 09:45 -25.92573 32.56355 122 ft 0 kts 251°
2026-04-12 09:45 -25.92575 32.56351 122 ft 1 kts 240°
2026-04-12 09:45 -25.92583 32.56355 120 ft 5 kts 119°
2026-04-12 09:46 -25.92601 32.56403 122 ft 7 kts 92°
2026-04-12 09:46 -25.92703 32.56449 122 ft 13 kts 171°
2026-04-12 09:46 -25.92753 32.56486 121 ft 3 kts 65°
2026-04-12 09:46 -25.92792 32.56566 122 ft 14 kts 128°
2026-04-12 09:47 -25.92860 32.56712 122 ft 31 kts 120°
2026-04-12 09:47 -25.92942 32.56869 121 ft 21 kts 116°
2026-04-12 09:47 -25.92962 32.56943 123 ft 1 kts 80°
2026-04-12 09:47 -25.92933 32.56970 120 ft 8 kts 35°
2026-04-12 09:48 -25.92873 32.57007 123 ft 12 kts 31°
2026-04-12 09:48 -25.92794 32.57057 123 ft 15 kts 29°
2026-04-12 09:48 -25.92695 32.57119 122 ft 18 kts 27°
2026-04-12 09:48 -25.92591 32.57182 123 ft 12 kts 30°
2026-04-12 09:49 -25.92529 32.57167 122 ft 6 kts 292°
2026-04-12 09:49 -25.92503 32.57097 121 ft 16 kts 303°
2026-04-12 09:49 -25.92452 32.57031 123 ft 9 kts
2026-04-12 09:49 -25.92379 32.57068 125 ft 21 kts 20°
2026-04-12 09:50 -25.92079 32.57255 129 ft 75 kts 27°
2026-04-12 09:50 -25.91513 32.57616 187 ft 106 kts 33°
2026-04-12 09:50 -25.90886 32.58099 354 ft 117 kts 36°
2026-04-12 09:50 -25.90400 32.58816 521 ft 120 kts 74°
2026-04-12 09:51 -25.90552 32.59708 582 ft 118 kts 122°
2026-04-12 09:51 -25.91122 32.60353 657 ft 116 kts 141°
2026-04-12 09:51 -25.91643 32.61049 668 ft 120 kts 119°
2026-04-12 09:51 -25.91986 32.61908 691 ft 121 kts 111°
2026-04-12 09:52 -25.92273 32.62773 788 ft 118 kts 114°
2026-04-12 09:52 -25.92859 32.63358 885 ft 114 kts 148°
2026-04-12 09:52 -25.93415 32.63978 995 ft 113 kts 117°
2026-04-12 09:52 -25.93650 32.64798 1108 ft 111 kts 106°
2026-04-12 09:53 -25.93853 32.65619 1228 ft 110 kts 104°
2026-04-12 09:53 -25.94040 32.66437 1349 ft 109 kts 104°
2026-04-12 09:53 -25.94221 32.67255 1466 ft 109 kts 104°
2026-04-12 09:53 -25.94398 32.68072 1595 ft 109 kts 103°
2026-04-12 09:54 -25.94573 32.68887 1718 ft 108 kts 103°
2026-04-12 09:54 -25.94748 32.69700 1842 ft 108 kts 103°
2026-04-12 09:54 -25.94922 32.70516 1966 ft 108 kts 103°
2026-04-12 09:54 -25.95096 32.71328 2090 ft 108 kts 103°
2026-04-12 09:55 -25.95269 32.72139 2214 ft 108 kts 103°
2026-04-12 09:55 -25.95441 32.72941 2337 ft 108 kts 103°
2026-04-12 09:55 -25.95614 32.73752 2461 ft 108 kts 103°
2026-04-12 09:55 -25.95787 32.74561 2578 ft 108 kts 103°
2026-04-12 09:56 -25.95959 32.75371 2709 ft 108 kts 103°
2026-04-12 09:56 -25.96132 32.76180 2834 ft 108 kts 103°
2026-04-12 09:56 -25.96304 32.76990 2958 ft 108 kts 103°
2026-04-12 09:56 -25.96477 32.77800 3083 ft 108 kts 103°
2026-04-12 09:57 -25.96651 32.78615 3206 ft 109 kts 103°
2026-04-12 09:57 -25.96825 32.79433 3333 ft 109 kts 103°
2026-04-12 09:57 -25.97001 32.80258 3424 ft 113 kts 103°
2026-04-12 09:57 -25.97191 32.81146 3438 ft 122 kts 103°
2026-04-12 09:58 -25.97392 32.82086 3441 ft 127 kts 103°
2026-04-12 09:58 -25.97599 32.83056 3439 ft 130 kts 103°
2026-04-12 09:58 -25.97807 32.84042 3428 ft 132 kts 103°
2026-04-12 09:58 -25.98010 32.85015 3266 ft 124 kts 103°
2026-04-12 09:59 -25.98204 32.85896 2968 ft 115 kts 105°
2026-04-12 09:59 -25.98429 32.86749 2571 ft 117 kts 106°
2026-04-12 09:59 -25.98635 32.87588 2287 ft 110 kts 105°
2026-04-12 09:59 -25.98835 32.88401 1965 ft 109 kts 106°
2026-04-12 10:00 -25.99038 32.89220 1609 ft 111 kts 105°
2026-04-12 10:00 -25.99234 32.90049 1274 ft 110 kts 105°
2026-04-12 10:00 -25.99447 32.90863 939 ft 108 kts 116°
2026-04-12 10:00 -25.99926 32.91463 676 ft 102 kts 143°
2026-04-12 10:01 -26.00493 32.91913 403 ft 102 kts 145°
2026-04-12 10:01 -26.00960 32.92477 305 ft 100 kts 107°
2026-04-12 10:01 -26.00978 32.93231 245 ft 99 kts 89°
2026-04-12 10:01 -26.00979 32.93981 268 ft 95 kts 87°
2026-04-12 10:02 -26.00957 32.94749 429 ft 105 kts 88°
2026-04-12 10:02 -26.00867 32.95562 635 ft 109 kts 75°
2026-04-12 10:02 -26.00627 32.96412 694 ft 115 kts 71°
2026-04-12 10:02 -26.00076 32.97038 677 ft 117 kts 26°
2026-04-12 10:03 -25.99268 32.97128 616 ft 122 kts 339°
2026-04-12 10:03 -25.98762 32.96425 559 ft 123 kts 277°
2026-04-12 10:03 -25.99020 32.95573 593 ft 117 kts 232°
2026-04-12 10:03 -25.99491 32.94839 527 ft 121 kts 235°
2026-04-12 10:04 -25.99979 32.94065 462 ft 123 kts 231°
2026-04-12 10:04 -26.00509 32.93303 307 ft 125 kts 228°
2026-04-12 10:04 -26.01101 32.92646 329 ft 117 kts 223°
2026-04-12 10:04 -26.01727 32.92066 316 ft 119 kts 217°
2026-04-12 10:05 -26.02468 32.91679 275 ft 121 kts 186°
2026-04-12 10:05 -26.03272 32.91936 254 ft 123 kts 145°
2026-04-12 10:05 -26.03783 32.92571 511 ft 105 kts 128°
2026-04-12 10:05 -26.04202 32.93298 478 ft 115 kts 109°
2026-04-12 10:06 -26.03945 32.94114 420 ft 120 kts 37°
2026-04-12 10:06 -26.03189 32.94449 474 ft 117 kts
2026-04-12 10:06 -26.02405 32.94277 403 ft 115 kts 325°
2026-04-12 10:06 -26.02026 32.93879 345 ft 106 kts 310°
2026-04-12 10:07 -26.01523 32.93442 285 ft 87 kts 340°
2026-04-12 10:07 -26.00938 32.93277 168 ft 87 kts 345°
2026-04-12 10:07 -26.00357 32.93108 92 ft 87 kts 345°
2026-04-12 10:07 -25.99778 32.92951 13 ft 80 kts 346°
2026-04-12 10:08 -25.99363 32.92831 6 ft 26 kts 346°